createdAt,value
2023-03-07T00:00:03.999Z,2.00
2023-03-07T00:01:04.085Z,2.00
2023-03-07T00:02:04.071Z,2.00
2023-03-07T00:03:04.045Z,2.00
2023-03-07T00:04:04.264Z,2.00
2023-03-07T00:05:04.229Z,2.00
2023-03-07T00:06:04.316Z,2.06
2023-03-07T00:07:04.420Z,2.06
2023-03-07T00:08:04.320Z,2.06
2023-03-07T00:09:04.318Z,2.00
2023-03-07T00:10:04.315Z,2.00
2023-03-07T00:11:04.397Z,2.00
2023-03-07T00:12:04.414Z,2.00
2023-03-07T00:13:04.388Z,2.00
2023-03-07T00:14:04.467Z,2.00
2023-03-07T00:15:03.428Z,1.94
2023-03-07T00:16:04.555Z,1.94
2023-03-07T00:17:03.666Z,1.94
2023-03-07T00:18:03.671Z,1.94
2023-03-07T00:19:03.754Z,1.94
2023-03-07T00:20:03.747Z,1.94
2023-03-07T00:21:04.230Z,1.94
2023-03-07T00:22:04.305Z,1.94
2023-03-07T00:23:04.299Z,1.94
2023-03-07T00:24:04.319Z,1.94
2023-03-07T00:25:04.391Z,1.94
2023-03-07T00:26:04.304Z,1.94
2023-03-07T00:27:04.300Z,1.94
2023-03-07T00:28:04.309Z,1.94
2023-03-07T00:29:04.393Z,1.94
2023-03-07T00:30:04.390Z,1.94
2023-03-07T00:31:04.548Z,1.88
2023-03-07T00:32:04.537Z,1.88
2023-03-07T00:33:04.475Z,1.88
2023-03-07T00:34:04.475Z,1.88
2023-03-07T00:35:04.376Z,1.88
2023-03-07T00:36:03.559Z,1.88
2023-03-07T00:37:03.594Z,1.88
2023-03-07T00:38:03.677Z,1.88
2023-03-07T00:39:03.760Z,1.88
2023-03-07T00:40:03.675Z,1.88
2023-03-07T00:41:03.761Z,1.88
2023-03-07T00:42:03.670Z,1.88
2023-03-07T00:43:03.762Z,1.88
2023-03-07T00:44:03.840Z,1.81
2023-03-07T00:45:03.911Z,1.81
2023-03-07T00:46:04.089Z,1.81
2023-03-07T00:47:03.995Z,1.81
2023-03-07T00:48:03.999Z,1.81
2023-03-07T00:49:04.010Z,1.81
2023-03-07T00:50:03.995Z,1.75
2023-03-07T00:51:03.987Z,1.75
2023-03-07T00:52:03.994Z,1.81
2023-03-07T00:53:04.085Z,1.75
2023-03-07T00:54:04.160Z,1.75
2023-03-07T00:55:04.156Z,1.75
2023-03-07T00:56:04.213Z,1.75
2023-03-07T00:57:04.225Z,1.75
2023-03-07T00:58:04.236Z,1.75
2023-03-07T00:59:04.220Z,1.69
2023-03-07T01:00:04.320Z,1.69
2023-03-07T01:01:04.352Z,1.75
2023-03-07T01:02:04.308Z,1.75
2023-03-07T01:03:04.395Z,1.75
2023-03-07T01:04:04.508Z,1.75
2023-03-07T01:05:04.409Z,1.69
2023-03-07T01:06:04.389Z,1.69
2023-03-07T01:07:03.517Z,1.69
2023-03-07T01:08:03.517Z,1.69
2023-03-07T01:09:03.589Z,1.69
2023-03-07T01:10:03.910Z,1.69
2023-03-07T01:11:03.994Z,1.69
2023-03-07T01:12:04.077Z,1.69
2023-03-07T01:13:04.067Z,1.69
2023-03-07T01:14:03.988Z,1.69
2023-03-07T01:15:04.066Z,1.69
2023-03-07T01:16:04.010Z,1.62
2023-03-07T01:17:04.008Z,1.62
2023-03-07T01:18:04.163Z,1.62
2023-03-07T01:19:04.185Z,1.62
2023-03-07T01:20:04.158Z,1.62
2023-03-07T01:21:04.074Z,1.62
2023-03-07T01:22:04.140Z,1.62
2023-03-07T01:23:04.146Z,1.62
2023-03-07T01:24:04.157Z,1.62
2023-03-07T01:25:04.159Z,1.62
2023-03-07T01:26:04.239Z,1.62
2023-03-07T01:27:04.313Z,1.62
2023-03-07T01:28:04.241Z,1.56
2023-03-07T01:29:04.240Z,1.56
2023-03-07T01:30:04.322Z,1.56
2023-03-07T01:31:04.407Z,1.56
2023-03-07T01:32:04.639Z,1.56
2023-03-07T01:33:03.516Z,1.56
2023-03-07T01:34:03.521Z,1.56
2023-03-07T01:35:03.907Z,1.56
2023-03-07T01:36:04.093Z,1.56
2023-03-07T01:37:04.082Z,1.56
2023-03-07T01:38:04.073Z,1.56
2023-03-07T01:39:04.149Z,1.56
2023-03-07T01:40:04.231Z,1.56
2023-03-07T01:41:04.232Z,1.56
2023-03-07T01:42:04.306Z,1.56
2023-03-07T01:43:04.227Z,1.56
2023-03-07T01:44:04.309Z,1.56
2023-03-07T01:45:04.313Z,1.56
2023-03-07T01:46:04.475Z,1.56
2023-03-07T01:47:03.602Z,1.56
2023-03-07T01:48:03.517Z,1.56
2023-03-07T01:49:03.601Z,1.56
2023-03-07T01:50:03.538Z,1.56
2023-03-07T01:51:03.512Z,1.56
2023-03-07T01:52:03.583Z,1.56
2023-03-07T01:53:03.512Z,1.56
2023-03-07T01:54:03.585Z,1.56
2023-03-07T01:55:03.666Z,1.56
2023-03-07T01:56:03.596Z,1.56
2023-03-07T01:57:03.756Z,1.50
2023-03-07T01:58:03.829Z,1.50
2023-03-07T01:59:03.751Z,1.50
2023-03-07T02:00:03.829Z,1.50
2023-03-07T02:01:03.900Z,1.56
2023-03-07T02:02:03.828Z,1.56
2023-03-07T02:03:03.923Z,1.56
2023-03-07T02:04:03.861Z,1.50
2023-03-07T02:05:03.907Z,1.50
2023-03-07T02:06:03.988Z,1.56
2023-03-07T02:07:03.986Z,1.56
2023-03-07T02:08:04.060Z,1.56
2023-03-07T02:09:04.147Z,1.56
2023-03-07T02:10:03.920Z,1.56
2023-03-07T02:11:03.902Z,1.50
2023-03-07T02:12:04.000Z,1.56
2023-03-07T02:13:04.078Z,1.56
2023-03-07T02:14:04.059Z,1.56
2023-03-07T02:15:04.097Z,1.56
2023-03-07T02:16:04.168Z,1.56
2023-03-07T02:17:04.144Z,1.56
2023-03-07T02:18:04.146Z,1.56
2023-03-07T02:19:04.221Z,1.56
2023-03-07T02:20:04.221Z,1.62
2023-03-07T02:21:04.304Z,1.62
2023-03-07T02:22:04.382Z,1.62
2023-03-07T02:23:03.510Z,1.62
2023-03-07T02:24:03.515Z,1.62
2023-03-07T02:25:03.505Z,1.62
2023-03-07T02:26:03.591Z,1.62
2023-03-07T02:27:03.660Z,1.62
2023-03-07T02:28:03.595Z,1.62
2023-03-07T02:29:03.596Z,1.62
2023-03-07T02:30:03.742Z,1.62
2023-03-07T02:31:03.834Z,1.62
2023-03-07T02:32:03.776Z,1.62
2023-03-07T02:33:03.838Z,1.62
2023-03-07T02:34:03.942Z,1.62
2023-03-07T02:35:04.010Z,1.62
2023-03-07T02:36:03.994Z,1.62
2023-03-07T02:37:03.989Z,1.62
2023-03-07T02:38:04.022Z,1.69
2023-03-07T02:39:04.074Z,1.69
2023-03-07T02:40:04.068Z,1.69
2023-03-07T02:41:04.081Z,1.69
2023-03-07T02:42:04.136Z,1.69
2023-03-07T02:43:04.329Z,1.69
2023-03-07T02:44:04.383Z,1.69
2023-03-07T02:45:04.414Z,1.62
2023-03-07T02:46:04.493Z,1.62
2023-03-07T02:47:03.517Z,1.69
2023-03-07T02:48:03.432Z,1.69
2023-03-07T02:49:03.585Z,1.69
2023-03-07T02:50:03.758Z,1.69
2023-03-07T02:51:03.753Z,1.69
2023-03-07T02:52:03.746Z,1.69
2023-03-07T02:53:03.682Z,1.69
2023-03-07T02:54:03.594Z,1.69
2023-03-07T02:55:03.610Z,1.69
2023-03-07T02:56:03.592Z,1.69
2023-03-07T02:57:03.589Z,1.69
2023-03-07T02:58:03.601Z,1.69
2023-03-07T02:59:03.594Z,1.69
2023-03-07T03:00:03.667Z,1.69
2023-03-07T03:01:03.679Z,1.69
2023-03-07T03:02:03.862Z,1.69
2023-03-07T03:03:03.758Z,1.69
2023-03-07T03:04:03.790Z,1.69
2023-03-07T03:05:03.991Z,1.69
2023-03-07T03:06:03.919Z,1.69
2023-03-07T03:07:03.908Z,1.75
2023-03-07T03:08:03.917Z,1.75
2023-03-07T03:09:03.837Z,1.75
2023-03-07T03:10:03.862Z,1.75
2023-03-07T03:11:03.835Z,1.75
2023-03-07T03:12:03.919Z,1.69
2023-03-07T03:13:03.940Z,1.69
2023-03-07T03:14:03.850Z,1.75
2023-03-07T03:15:03.993Z,1.69
2023-03-07T03:16:04.171Z,1.75
2023-03-07T03:17:04.075Z,1.69
2023-03-07T03:18:04.254Z,1.75
2023-03-07T03:19:04.245Z,1.69
2023-03-07T03:20:04.250Z,1.75
2023-03-07T03:21:04.158Z,1.75
2023-03-07T03:22:04.151Z,1.75
2023-03-07T03:23:03.907Z,1.75
2023-03-07T03:24:03.997Z,1.75
2023-03-07T03:25:04.073Z,1.75
2023-03-07T03:26:04.169Z,1.75
2023-03-07T03:27:04.075Z,1.75
2023-03-07T03:28:03.984Z,1.75
2023-03-07T03:29:04.162Z,1.81
2023-03-07T03:30:04.159Z,1.81
2023-03-07T03:31:04.343Z,1.81
2023-03-07T03:32:04.307Z,1.81
2023-03-07T03:33:04.318Z,1.81
2023-03-07T03:34:04.321Z,1.81
2023-03-07T03:35:04.329Z,1.81
2023-03-07T03:36:04.397Z,1.75
2023-03-07T03:37:04.481Z,1.75
2023-03-07T03:38:04.382Z,1.75
2023-03-07T03:39:04.470Z,1.75
2023-03-07T03:40:04.390Z,1.81
2023-03-07T03:41:04.322Z,1.75
2023-03-07T03:42:03.528Z,1.75
2023-03-07T03:43:03.604Z,1.75
2023-03-07T03:44:03.595Z,1.75
2023-03-07T03:45:03.605Z,1.75
2023-03-07T03:46:03.596Z,1.75
2023-03-07T03:47:04.400Z,1.81
2023-03-07T03:48:04.394Z,1.81
2023-03-07T03:49:04.317Z,1.81
2023-03-07T03:50:04.306Z,1.81
2023-03-07T03:51:04.301Z,1.81
2023-03-07T03:52:04.409Z,1.81
2023-03-07T03:53:04.396Z,1.75
2023-03-07T03:54:04.391Z,1.81
2023-03-07T03:55:04.461Z,1.81
2023-03-07T03:56:03.647Z,1.81
2023-03-07T03:57:03.527Z,1.81
2023-03-07T03:58:03.535Z,1.81
2023-03-07T03:59:03.504Z,1.81
2023-03-07T04:00:03.590Z,1.81
2023-03-07T04:01:03.594Z,1.81
2023-03-07T04:02:03.870Z,1.81
2023-03-07T04:03:03.796Z,1.81
2023-03-07T04:04:03.752Z,1.81
2023-03-07T04:05:03.765Z,1.81
2023-03-07T04:06:03.760Z,1.81
2023-03-07T04:07:03.848Z,1.81
2023-03-07T04:08:03.754Z,1.81
2023-03-07T04:09:03.822Z,1.81
2023-03-07T04:10:03.927Z,1.81
2023-03-07T04:11:03.913Z,1.81
2023-03-07T04:12:04.066Z,1.81
2023-03-07T04:13:04.148Z,1.81
2023-03-07T04:14:04.232Z,1.81
2023-03-07T04:15:04.216Z,1.81
2023-03-07T04:16:04.405Z,1.81
2023-03-07T04:17:04.379Z,1.75
2023-03-07T04:18:04.311Z,1.81
2023-03-07T04:19:04.383Z,1.75
2023-03-07T04:20:03.515Z,1.81
2023-03-07T04:21:03.604Z,1.75
2023-03-07T04:22:04.003Z,1.75
2023-03-07T04:23:03.917Z,1.81
2023-03-07T04:24:04.074Z,1.81
2023-03-07T04:25:03.671Z,1.81
2023-03-07T04:26:03.953Z,1.81
2023-03-07T04:27:03.834Z,1.75
2023-03-07T04:28:03.908Z,1.81
2023-03-07T04:29:03.919Z,1.81
2023-03-07T04:30:03.908Z,1.81
2023-03-07T04:31:03.992Z,1.81
2023-03-07T04:32:04.097Z,1.81
2023-03-07T04:33:04.074Z,1.81
2023-03-07T04:34:04.230Z,1.88
2023-03-07T04:35:04.154Z,1.88
2023-03-07T04:36:04.304Z,1.88
2023-03-07T04:37:04.229Z,1.88
2023-03-07T04:38:04.312Z,1.88
2023-03-07T04:39:04.420Z,1.88
2023-03-07T04:40:04.384Z,1.88
2023-03-07T04:41:03.444Z,1.88
2023-03-07T04:42:04.468Z,1.88
2023-03-07T04:43:03.604Z,1.88
2023-03-07T04:44:03.507Z,1.88
2023-03-07T04:45:04.847Z,1.88
2023-03-07T04:46:03.865Z,1.88
2023-03-07T04:47:03.738Z,1.88
2023-03-07T04:48:03.901Z,1.88
2023-03-07T04:49:03.850Z,1.88
2023-03-07T04:50:03.851Z,1.88
2023-03-07T04:51:03.870Z,1.88
2023-03-07T04:52:03.910Z,1.88
2023-03-07T04:53:03.978Z,1.88
2023-03-07T04:54:04.081Z,1.88
2023-03-07T04:55:04.072Z,1.81
2023-03-07T04:56:04.152Z,1.81
2023-03-07T04:57:04.159Z,1.81
2023-03-07T04:58:04.223Z,1.81
2023-03-07T04:59:04.318Z,1.81
2023-03-07T05:00:04.152Z,1.81
2023-03-07T05:01:04.334Z,1.81
2023-03-07T05:02:04.233Z,1.81
2023-03-07T05:03:04.306Z,1.81
2023-03-07T05:04:04.368Z,1.81
2023-03-07T05:05:04.312Z,1.81
2023-03-07T05:06:04.380Z,1.81
2023-03-07T05:07:04.481Z,1.81
2023-03-07T05:08:04.473Z,1.81
2023-03-07T05:09:04.389Z,1.81
2023-03-07T05:10:03.519Z,1.81
2023-03-07T05:11:03.582Z,1.81
2023-03-07T05:12:03.557Z,1.81
2023-03-07T05:13:03.582Z,1.81
2023-03-07T05:14:03.595Z,1.81
2023-03-07T05:15:03.586Z,1.81
2023-03-07T05:16:03.751Z,1.81
2023-03-07T05:17:03.829Z,1.88
2023-03-07T05:18:03.742Z,1.81
2023-03-07T05:19:06.064Z,1.88
2023-03-07T05:20:03.838Z,1.81
2023-03-07T05:21:03.911Z,1.81
2023-03-07T05:22:03.912Z,1.88
2023-03-07T05:23:03.994Z,1.88
2023-03-07T05:24:03.905Z,1.88
2023-03-07T05:25:04.323Z,1.88
2023-03-07T05:26:03.999Z,1.88
2023-03-07T05:27:04.150Z,1.88
2023-03-07T05:28:04.169Z,1.88
2023-03-07T05:29:04.146Z,1.88
2023-03-07T05:30:04.160Z,1.94
2023-03-07T05:31:04.355Z,1.94
2023-03-07T05:32:04.371Z,1.94
2023-03-07T05:33:04.399Z,2.00
2023-03-07T05:34:04.302Z,2.00
2023-03-07T05:35:04.298Z,1.94
2023-03-07T05:36:04.363Z,2.00
2023-03-07T05:37:04.391Z,2.00
2023-03-07T05:38:04.299Z,2.00
2023-03-07T05:39:04.387Z,2.00
2023-03-07T05:40:03.527Z,2.00
2023-03-07T05:41:03.596Z,2.00
2023-03-07T05:42:03.683Z,2.00
2023-03-07T05:43:03.613Z,2.00
2023-03-07T05:44:03.750Z,2.00
2023-03-07T05:45:03.681Z,2.06
2023-03-07T05:46:03.804Z,2.06
2023-03-07T05:47:03.746Z,2.06
2023-03-07T05:48:03.752Z,2.06
2023-03-07T05:49:03.831Z,2.06
2023-03-07T05:50:03.835Z,2.06
2023-03-07T05:51:03.840Z,2.12
2023-03-07T05:52:03.912Z,2.12
2023-03-07T05:53:03.983Z,2.12
2023-03-07T05:54:04.153Z,2.12
2023-03-07T05:55:04.317Z,2.12
2023-03-07T05:56:04.324Z,2.19
2023-03-07T05:57:04.400Z,2.19
2023-03-07T05:58:04.389Z,2.19
2023-03-07T05:59:04.470Z,2.19
2023-03-07T06:00:03.508Z,2.25
2023-03-07T06:01:04.472Z,2.25
2023-03-07T06:02:04.472Z,2.25
2023-03-07T06:03:04.394Z,2.25
2023-03-07T06:04:04.455Z,2.25
2023-03-07T06:05:04.379Z,2.19
2023-03-07T06:06:03.670Z,2.19
2023-03-07T06:07:03.581Z,2.19
2023-03-07T06:08:03.668Z,2.19
2023-03-07T06:09:03.750Z,2.19
2023-03-07T06:10:03.660Z,2.25
2023-03-07T06:11:03.746Z,2.25
2023-03-07T06:12:03.590Z,2.25
2023-03-07T06:13:03.663Z,2.25
2023-03-07T06:14:03.846Z,2.25
2023-03-07T06:15:03.832Z,2.31
2023-03-07T06:16:03.967Z,2.31
2023-03-07T06:17:04.082Z,2.31
2023-03-07T06:18:03.989Z,2.38
2023-03-07T06:19:03.989Z,2.38
2023-03-07T06:20:03.991Z,2.38
2023-03-07T06:21:04.076Z,2.38
2023-03-07T06:22:03.995Z,2.38
2023-03-07T06:23:04.090Z,2.38
2023-03-07T06:24:04.072Z,2.38
2023-03-07T06:25:04.071Z,2.38
2023-03-07T06:26:04.024Z,2.38
2023-03-07T06:27:04.065Z,2.44
2023-03-07T06:28:04.155Z,2.44
2023-03-07T06:29:04.064Z,2.44
2023-03-07T06:30:04.066Z,2.44
2023-03-07T06:31:04.007Z,2.44
2023-03-07T06:32:04.088Z,2.44
2023-03-07T06:33:04.158Z,2.44
2023-03-07T06:34:04.072Z,2.44
2023-03-07T06:35:03.996Z,2.50
2023-03-07T06:36:04.288Z,2.50
2023-03-07T06:37:04.154Z,2.50
2023-03-07T06:38:04.229Z,2.62
2023-03-07T06:39:04.236Z,2.75
2023-03-07T06:40:04.315Z,2.94
2023-03-07T06:41:04.489Z,2.94
2023-03-07T06:42:04.392Z,2.94
2023-03-07T06:43:04.473Z,2.94
2023-03-07T06:44:03.518Z,2.88
2023-03-07T06:45:03.522Z,2.88
2023-03-07T06:46:03.640Z,2.88
2023-03-07T06:47:03.502Z,2.88
2023-03-07T06:48:03.520Z,2.88
2023-03-07T06:49:03.538Z,2.88
2023-03-07T06:50:04.471Z,3.00
2023-03-07T06:51:04.562Z,3.12
2023-03-07T06:52:03.510Z,3.12
2023-03-07T06:53:03.506Z,3.12
2023-03-07T06:54:03.508Z,3.06
2023-03-07T06:55:04.487Z,3.00
2023-03-07T06:56:04.400Z,3.00
2023-03-07T06:57:04.479Z,3.00
2023-03-07T06:58:04.471Z,3.00
2023-03-07T06:59:03.505Z,2.94
2023-03-07T07:00:03.566Z,2.94
2023-03-07T07:01:03.507Z,2.94
2023-03-07T07:02:03.686Z,2.94
2023-03-07T07:03:04.594Z,2.94
2023-03-07T07:04:04.472Z,2.94
2023-03-07T07:05:04.470Z,3.06
2023-03-07T07:06:03.512Z,3.19
2023-03-07T07:07:03.427Z,3.25
2023-03-07T07:08:03.431Z,3.19
2023-03-07T07:09:04.476Z,3.19
2023-03-07T07:10:03.591Z,3.19
2023-03-07T07:11:03.507Z,3.19
2023-03-07T07:12:03.604Z,3.12
2023-03-07T07:13:03.677Z,3.12
2023-03-07T07:14:03.593Z,3.12
2023-03-07T07:15:03.595Z,3.19
2023-03-07T07:16:03.580Z,3.12
2023-03-07T07:17:03.669Z,3.12
2023-03-07T07:18:03.685Z,3.12
2023-03-07T07:19:03.771Z,3.12
2023-03-07T07:20:03.758Z,3.12
2023-03-07T07:21:03.762Z,3.12
2023-03-07T07:22:03.754Z,3.12
2023-03-07T07:23:03.750Z,3.19
2023-03-07T07:24:03.823Z,3.19
2023-03-07T07:25:03.920Z,3.19
2023-03-07T07:26:03.913Z,3.19
2023-03-07T07:27:03.840Z,3.19
2023-03-07T07:28:04.017Z,3.19
2023-03-07T07:29:04.068Z,3.25
2023-03-07T07:30:04.153Z,3.25
2023-03-07T07:31:04.113Z,3.31
2023-03-07T07:32:04.391Z,3.31
2023-03-07T07:33:04.375Z,3.31
2023-03-07T07:34:04.318Z,3.38
2023-03-07T07:35:04.492Z,3.38
2023-03-07T07:36:04.442Z,3.38
2023-03-07T07:37:04.471Z,3.44
2023-03-07T07:38:04.490Z,3.38
2023-03-07T07:39:04.473Z,3.44
2023-03-07T07:40:04.480Z,3.44
2023-03-07T07:41:04.483Z,3.44
2023-03-07T07:42:04.482Z,3.44
2023-03-07T07:43:04.390Z,3.50
2023-03-07T07:44:04.313Z,3.50
2023-03-07T07:45:04.318Z,3.50
2023-03-07T07:46:04.386Z,3.56
2023-03-07T07:47:04.397Z,3.56
2023-03-07T07:48:04.466Z,3.56
2023-03-07T07:49:03.508Z,3.56
2023-03-07T07:50:03.603Z,3.62
2023-03-07T07:51:03.707Z,3.62
2023-03-07T07:52:03.670Z,3.62
2023-03-07T07:53:04.641Z,3.69
2023-03-07T07:54:03.729Z,3.69
2023-03-07T07:55:03.673Z,3.69
2023-03-07T07:56:03.772Z,3.69
2023-03-07T07:57:03.839Z,3.69
2023-03-07T07:58:03.777Z,3.75
2023-03-07T07:59:03.672Z,3.75
2023-03-07T08:00:03.743Z,3.75
2023-03-07T08:01:04.174Z,3.75
2023-03-07T08:02:04.324Z,3.81
2023-03-07T08:03:04.400Z,3.81
2023-03-07T08:04:04.240Z,3.81
2023-03-07T08:05:04.312Z,3.88
2023-03-07T08:06:04.484Z,3.88
2023-03-07T08:07:04.489Z,3.94
2023-03-07T08:08:04.562Z,3.94
2023-03-07T08:09:04.416Z,3.94
2023-03-07T08:10:04.324Z,3.94
2023-03-07T08:11:04.319Z,3.94
2023-03-07T08:12:04.320Z,4.00
2023-03-07T08:13:04.484Z,4.00
2023-03-07T08:14:03.513Z,4.00
2023-03-07T08:15:03.517Z,4.00
2023-03-07T08:16:03.658Z,4.06
2023-03-07T08:17:03.575Z,4.06
2023-03-07T08:18:03.491Z,4.06
2023-03-07T08:19:03.597Z,4.06
2023-03-07T08:20:03.606Z,4.06
2023-03-07T08:21:03.548Z,4.12
2023-03-07T08:22:04.398Z,4.12
2023-03-07T08:23:04.493Z,4.12
2023-03-07T08:24:04.328Z,4.19
2023-03-07T08:25:03.532Z,4.19
2023-03-07T08:26:05.837Z,4.19
2023-03-07T08:27:03.612Z,4.19
2023-03-07T08:28:05.466Z,4.19
2023-03-07T08:29:04.406Z,4.19
2023-03-07T08:30:04.311Z,4.19
2023-03-07T08:31:03.558Z,4.19
2023-03-07T08:32:03.665Z,4.19
2023-03-07T08:33:03.649Z,4.19
2023-03-07T08:34:03.524Z,4.25
2023-03-07T08:35:03.522Z,4.25
2023-03-07T08:36:03.632Z,4.25
2023-03-07T08:37:08.654Z,4.25
2023-03-07T08:38:04.402Z,4.25
2023-03-07T08:39:03.544Z,4.31
2023-03-07T08:40:03.539Z,4.31
2023-03-07T08:41:03.533Z,4.31
2023-03-07T08:42:03.681Z,4.38
2023-03-07T08:43:03.765Z,4.44
2023-03-07T08:44:03.769Z,4.50
2023-03-07T08:45:03.918Z,4.50
2023-03-07T08:46:03.894Z,4.50
2023-03-07T08:47:03.829Z,4.56
2023-03-07T08:48:03.839Z,4.62
2023-03-07T08:49:03.833Z,4.62
2023-03-07T08:50:03.913Z,4.69
2023-03-07T08:51:04.005Z,4.75
2023-03-07T08:52:03.918Z,4.75
2023-03-07T08:53:03.856Z,4.81
2023-03-07T08:54:03.826Z,4.88
2023-03-07T08:55:03.833Z,4.88
2023-03-07T08:56:03.837Z,5.00
2023-03-07T08:57:03.951Z,5.06
2023-03-07T08:58:03.987Z,5.12
2023-03-07T08:59:04.068Z,5.19
2023-03-07T09:00:04.077Z,5.25
2023-03-07T09:01:03.991Z,5.31
2023-03-07T09:02:04.085Z,5.38
2023-03-07T09:03:03.910Z,5.44
2023-03-07T09:04:03.993Z,5.50
2023-03-07T09:05:04.108Z,5.56
2023-03-07T09:06:04.179Z,5.56
2023-03-07T09:07:04.225Z,5.62
2023-03-07T09:08:04.225Z,5.69
2023-03-07T09:09:04.244Z,5.75
2023-03-07T09:10:04.157Z,5.81
2023-03-07T09:11:04.334Z,5.81
2023-03-07T09:12:04.316Z,5.88
2023-03-07T09:13:04.234Z,5.88
2023-03-07T09:14:04.319Z,5.94
2023-03-07T09:15:04.322Z,6.00
2023-03-07T09:16:04.499Z,5.94
2023-03-07T09:17:04.390Z,6.00
2023-03-07T09:18:04.479Z,6.00
2023-03-07T09:19:03.513Z,6.00
2023-03-07T09:20:03.526Z,6.00
2023-03-07T09:21:03.679Z,6.06
2023-03-07T09:22:04.013Z,6.06
2023-03-07T09:23:04.071Z,6.12
2023-03-07T09:24:03.986Z,6.12
2023-03-07T09:25:04.078Z,6.19
2023-03-07T09:26:04.246Z,6.19
2023-03-07T09:27:04.152Z,6.25
2023-03-07T09:28:04.157Z,6.25
2023-03-07T09:29:04.073Z,6.31
2023-03-07T09:30:04.146Z,6.31
2023-03-07T09:31:04.272Z,6.31
2023-03-07T09:32:04.302Z,6.31
2023-03-07T09:33:04.245Z,6.31
2023-03-07T09:34:04.326Z,6.31
2023-03-07T09:35:04.324Z,6.38
2023-03-07T09:36:04.446Z,6.38
2023-03-07T09:37:04.397Z,6.38
2023-03-07T09:38:04.320Z,6.38
2023-03-07T09:39:04.396Z,6.38
2023-03-07T09:40:04.493Z,6.38
2023-03-07T09:41:03.524Z,6.44
2023-03-07T09:42:04.477Z,6.44
2023-03-07T09:43:03.515Z,6.44
2023-03-07T09:44:03.674Z,6.44
2023-03-07T09:45:03.732Z,6.50
2023-03-07T09:46:03.875Z,6.50
2023-03-07T09:47:03.914Z,6.50
2023-03-07T09:48:03.832Z,6.56
2023-03-07T09:49:03.902Z,6.56
2023-03-07T09:50:03.834Z,6.56
2023-03-07T09:51:11.313Z,6.56
2023-03-07T09:52:03.846Z,6.56
2023-03-07T09:53:04.003Z,6.62
2023-03-07T09:54:03.831Z,6.62
2023-03-07T09:55:03.957Z,6.62
2023-03-07T09:56:04.006Z,6.62
2023-03-07T09:57:04.421Z,6.69
2023-03-07T09:58:04.397Z,6.69
2023-03-07T09:59:11.013Z,6.69
2023-03-07T10:00:04.484Z,6.75
2023-03-07T10:01:04.489Z,6.75
2023-03-07T10:02:04.484Z,6.75
2023-03-07T10:03:04.416Z,6.81
2023-03-07T10:04:04.444Z,6.81
2023-03-07T10:05:04.317Z,6.88
2023-03-07T10:06:04.478Z,6.88
2023-03-07T10:07:04.392Z,6.88
2023-03-07T10:08:04.485Z,6.88
2023-03-07T10:09:04.522Z,6.88
2023-03-07T10:10:04.399Z,6.88
2023-03-07T10:11:03.514Z,6.94
2023-03-07T10:12:04.890Z,6.94
2023-03-07T10:13:03.588Z,6.94
2023-03-07T10:14:03.700Z,6.94
2023-03-07T10:15:03.739Z,6.94
2023-03-07T10:16:03.607Z,6.94
2023-03-07T10:17:03.625Z,7.00
2023-03-07T10:18:04.696Z,7.00
2023-03-07T10:19:03.779Z,6.94
2023-03-07T10:20:03.699Z,6.94
2023-03-07T10:21:03.767Z,6.94
2023-03-07T10:22:03.845Z,7.00
2023-03-07T10:23:03.992Z,6.94
2023-03-07T10:24:04.000Z,6.94
2023-03-07T10:25:04.096Z,7.00
2023-03-07T10:26:04.175Z,6.94
2023-03-07T10:27:04.155Z,6.94
2023-03-07T10:28:04.255Z,7.00
2023-03-07T10:29:04.321Z,7.00
2023-03-07T10:30:04.404Z,7.00
2023-03-07T10:31:04.403Z,7.00
2023-03-07T10:32:03.758Z,7.00
2023-03-07T10:33:03.590Z,7.00
2023-03-07T10:34:03.584Z,7.00
2023-03-07T10:35:03.624Z,7.00
2023-03-07T10:36:03.683Z,7.00
2023-03-07T10:37:09.008Z,7.00
2023-03-07T10:38:04.246Z,6.94
2023-03-07T10:39:04.231Z,6.94
2023-03-07T10:40:05.036Z,6.94
2023-03-07T10:41:04.306Z,6.88
2023-03-07T10:42:03.530Z,6.88
2023-03-07T10:43:04.810Z,6.88
2023-03-07T10:44:03.686Z,6.88
2023-03-07T10:45:03.690Z,6.88
2023-03-07T10:46:04.615Z,6.88
2023-03-07T10:47:03.771Z,6.81
2023-03-07T10:48:03.755Z,6.81
2023-03-07T10:49:03.791Z,6.81
2023-03-07T10:50:03.764Z,6.81
2023-03-07T10:51:03.756Z,6.81
2023-03-07T10:52:03.661Z,6.81
2023-03-07T10:53:03.767Z,6.81
2023-03-07T10:54:03.824Z,6.81
2023-03-07T10:55:03.760Z,6.75
2023-03-07T10:56:03.830Z,6.75
2023-03-07T10:57:03.829Z,6.81
2023-03-07T10:58:03.755Z,6.75
2023-03-07T10:59:03.782Z,6.75
2023-03-07T11:00:03.911Z,6.75
2023-03-07T11:01:04.187Z,6.81
2023-03-07T11:02:03.751Z,6.81
2023-03-07T11:03:04.144Z,6.75
2023-03-07T11:04:04.088Z,6.81
2023-03-07T11:05:04.114Z,6.81
2023-03-07T11:06:03.923Z,6.81
2023-03-07T11:07:04.309Z,6.81
2023-03-07T11:08:04.376Z,6.81
2023-03-07T11:09:04.200Z,6.81
2023-03-07T11:10:03.588Z,6.81
2023-03-07T11:11:03.586Z,6.81
2023-03-07T11:12:03.599Z,6.88
2023-03-07T11:13:03.515Z,6.88
2023-03-07T11:14:03.593Z,6.88
2023-03-07T11:15:03.509Z,6.88
2023-03-07T11:16:11.266Z,6.88
2023-03-07T11:17:03.518Z,6.94
2023-03-07T11:18:03.594Z,6.94
2023-03-07T11:19:03.588Z,6.94
2023-03-07T11:20:04.468Z,6.94
2023-03-07T11:21:04.468Z,7.00
2023-03-07T11:22:03.515Z,7.06
2023-03-07T11:23:03.580Z,7.12
2023-03-07T11:24:03.688Z,7.12
2023-03-07T11:25:03.585Z,7.19
2023-03-07T11:26:03.587Z,7.19
2023-03-07T11:27:03.625Z,7.19
2023-03-07T11:28:03.585Z,7.25
2023-03-07T11:29:03.587Z,7.31
2023-03-07T11:30:03.664Z,7.31
2023-03-07T11:31:03.779Z,7.38
2023-03-07T11:32:05.756Z,7.38
2023-03-07T11:33:03.796Z,7.38
2023-03-07T11:34:03.746Z,7.44
2023-03-07T11:35:03.669Z,7.44
2023-03-07T11:36:03.628Z,7.50
2023-03-07T11:37:03.679Z,7.50
2023-03-07T11:38:03.754Z,7.50
2023-03-07T11:39:03.677Z,7.50
2023-03-07T11:40:03.786Z,7.50
2023-03-07T11:41:03.673Z,7.50
2023-03-07T11:42:03.760Z,7.50
2023-03-07T11:43:03.665Z,7.50
2023-03-07T11:44:05.491Z,7.50
2023-03-07T11:45:03.690Z,7.50
2023-03-07T11:46:03.848Z,7.50
2023-03-07T11:47:03.669Z,7.56
2023-03-07T11:48:03.595Z,7.56
2023-03-07T11:49:03.745Z,7.56
2023-03-07T11:50:03.691Z,7.62
2023-03-07T11:51:03.759Z,7.62
2023-03-07T11:52:03.830Z,7.62
2023-03-07T11:53:03.745Z,7.62
2023-03-07T11:54:03.826Z,7.62
2023-03-07T11:55:03.905Z,7.62
2023-03-07T11:56:03.826Z,7.62
2023-03-07T11:57:03.831Z,7.62
2023-03-07T11:58:03.819Z,7.62
2023-03-07T11:59:03.903Z,7.62
2023-03-07T12:00:03.914Z,7.62
2023-03-07T12:01:03.907Z,7.69
2023-03-07T12:02:03.847Z,7.69
2023-03-07T12:03:03.879Z,7.62
2023-03-07T12:04:03.978Z,7.69
2023-03-07T12:05:03.910Z,7.62
2023-03-07T12:06:03.999Z,7.62
2023-03-07T12:07:03.993Z,7.69
2023-03-07T12:08:04.107Z,7.69
2023-03-07T12:09:03.998Z,7.62
2023-03-07T12:10:04.128Z,7.62
2023-03-07T12:11:03.992Z,7.62
2023-03-07T12:12:04.102Z,7.62
2023-03-07T12:13:04.094Z,7.62
2023-03-07T12:14:04.072Z,7.62
2023-03-07T12:15:04.173Z,7.62
2023-03-07T12:16:04.297Z,7.62
2023-03-07T12:17:04.171Z,7.62
2023-03-07T12:18:04.000Z,7.62
2023-03-07T12:19:04.128Z,7.62
2023-03-07T12:20:03.997Z,7.62
2023-03-07T12:21:04.079Z,7.62
2023-03-07T12:22:04.162Z,7.62
2023-03-07T12:23:04.159Z,7.62
2023-03-07T12:24:04.070Z,7.62
2023-03-07T12:25:04.157Z,7.62
2023-03-07T12:26:04.162Z,7.69
2023-03-07T12:27:04.076Z,7.69
2023-03-07T12:28:04.246Z,7.69
2023-03-07T12:29:04.075Z,7.69
2023-03-07T12:30:04.159Z,7.69
2023-03-07T12:31:04.153Z,7.69
2023-03-07T12:32:04.237Z,7.69
2023-03-07T12:33:04.337Z,7.69
2023-03-07T12:34:04.401Z,7.69
2023-03-07T12:35:04.406Z,7.69
2023-03-07T12:36:04.405Z,7.69
2023-03-07T12:37:04.411Z,7.69
2023-03-07T12:38:04.486Z,7.75
2023-03-07T12:39:04.396Z,7.75
2023-03-07T12:40:04.406Z,7.75
2023-03-07T12:41:04.402Z,7.75
2023-03-07T12:42:04.499Z,7.75
2023-03-07T12:43:04.403Z,7.75
2023-03-07T12:44:04.388Z,7.75
2023-03-07T12:45:04.403Z,7.75
2023-03-07T12:46:04.584Z,7.75
2023-03-07T12:47:04.489Z,7.75
2023-03-07T12:48:04.519Z,7.75
2023-03-07T12:49:03.622Z,7.75
2023-03-07T12:50:03.672Z,7.75
2023-03-07T12:51:03.674Z,7.75
2023-03-07T12:52:03.670Z,7.75
2023-03-07T12:53:03.675Z,7.75
2023-03-07T12:54:04.651Z,7.75
2023-03-07T12:55:03.672Z,7.69
2023-03-07T12:56:03.834Z,7.69
2023-03-07T12:57:03.758Z,7.69
2023-03-07T12:58:03.769Z,7.62
2023-03-07T12:59:03.845Z,7.62
2023-03-07T13:00:04.718Z,7.62
2023-03-07T13:01:03.853Z,7.56
2023-03-07T13:02:03.923Z,7.56
2023-03-07T13:03:03.838Z,7.50
2023-03-07T13:04:03.902Z,7.50
2023-03-07T13:05:03.840Z,7.44
2023-03-07T13:06:03.838Z,7.44
2023-03-07T13:07:04.022Z,7.44
2023-03-07T13:08:04.004Z,7.38
2023-03-07T13:09:04.083Z,7.38
2023-03-07T13:10:04.006Z,7.38
2023-03-07T13:11:03.926Z,7.38
2023-03-07T13:12:03.834Z,7.38
2023-03-07T13:13:03.839Z,7.38
2023-03-07T13:14:03.912Z,7.38
2023-03-07T13:15:04.011Z,7.31
2023-03-07T13:16:04.006Z,7.31
2023-03-07T13:17:03.987Z,7.38
2023-03-07T13:18:04.045Z,7.38